You are listening to:
WARR Gnd/Twr/Radar - Surabaya, Indonesia

WARR 210000Z VRB02KT 5000 HZ FEW020 28/23 Q1011 NOSIG

If stream does not start automatically press the play button